Página principal
METAR-TAF:

METAR-TAF

Aeroportos :

Vientiane, Laos

Aeroporto Internacional de Wattay

latitude: 17-57N, longitude: 102-34E, altura: 171 m

Observação actual do tempo

O boletim foi feito há 22 minutos, às 00:30 UTC
Vento 2 kt de sul
Temperatura 22°C
Humidade 100%
Pressão 1015 hPa
Visibilidade: 5000 m
Nuvens dispersasa uma altura de 2000 ft
Nuvens fragmentadasa uma altura de 4000 ft
neblina

METAR: VLVT 230030Z 18002KT 5000 BR SCT020 BKN040 22/22 Q1015 NOSIG

Hora: 07:52 (00:52 UTC)

Previsão

O boletim foi feito há 1 hora e 52 minutos, às 23:00 UTC
Previsão válida de 23 às 00 UTC a 23 às 24 UTC
Vento 6 kt de es-nordeste
Visibilidade: 7000 m
Nuvens dispersasa uma altura de 2000 ft
Nuvens dispersasa uma altura de 5000 ft
Temporariamente
de 23 às 00 UTC a 23 às 03 UTC
Visibilidade: 4000 m
Nuvens dispersasa uma altura de 1600 ft
Nuvens fragmentadasa uma altura de 4000 ft
neblina

TAF: VLVT 222300Z 2300/2324 06006KT 7000 SCT020 SCT050 TEMPO 2300/2303 4000 BR SCT016 BKN040

Observações e previsões do tempo de mais de 4000 aeroportos (mensagens METAR e TAF).

As estações disponíveis são os pontos amarelos e vermelhos sobre o mapa.

Mova o rato sobre o mapa para ver o nome da estação.

Depois clique no ponto para visualizar as observações e previsões meteorológicas.

Para alterar o mapa : clique nos botões verdes com uma cruz preta para aumentar o zoom; no botão verde com uma pitada de zoom; ou nas setas verdes para mapas adjacentes.


METAR-TAF: